sensor_id;sensor_type;location;lat;lon;timestamp;P1;durP1;ratioP1;P2;durP2;ratioP2
11996;SDS011;6058;48.704;9.474;2024-01-11T00:03:01;28.20;;;13.33;;
11996;SDS011;6058;48.704;9.474;2024-01-11T00:05:33;27.67;;;12.80;;
11996;SDS011;6058;48.704;9.474;2024-01-11T00:08:38;26.10;;;15.20;;
11996;SDS011;6058;48.704;9.474;2024-01-11T00:11:09;30.90;;;14.87;;
11996;SDS011;6058;48.704;9.474;2024-01-11T00:13:52;21.13;;;10.87;;
11996;SDS011;6058;48.704;9.474;2024-01-11T00:16:30;23.50;;;11.20;;
11996;SDS011;6058;48.704;9.474;2024-01-11T00:19:01;25.23;;;13.67;;
11996;SDS011;6058;48.704;9.474;2024-01-11T00:21:36;27.60;;;13.90;;
11996;SDS011;6058;48.704;9.474;2024-01-11T00:24:13;26.10;;;13.50;;
11996;SDS011;6058;48.704;9.474;2024-01-11T00:31:57;27.17;;;13.77;;
11996;SDS011;6058;48.704;9.474;2024-01-11T00:34:55;23.73;;;14.17;;
11996;SDS011;6058;48.704;9.474;2024-01-11T00:37:31;28.27;;;13.97;;
11996;SDS011;6058;48.704;9.474;2024-01-11T00:40:16;24.90;;;12.60;;
11996;SDS011;6058;48.704;9.474;2024-01-11T00:42:46;33.80;;;14.83;;
11996;SDS011;6058;48.704;9.474;2024-01-11T00:45:22;27.03;;;13.97;;
11996;SDS011;6058;48.704;9.474;2024-01-11T00:47:51;26.23;;;12.87;;
11996;SDS011;6058;48.704;9.474;2024-01-11T00:50:25;29.87;;;14.13;;
11996;SDS011;6058;48.704;9.474;2024-01-11T00:52:59;26.37;;;12.27;;
11996;SDS011;6058;48.704;9.474;2024-01-11T00:55:30;28.67;;;13.17;;
11996;SDS011;6058;48.704;9.474;2024-01-11T00:58:03;23.67;;;13.00;;
11996;SDS011;6058;48.704;9.474;2024-01-11T01:00:33;28.43;;;13.80;;
11996;SDS011;6058;48.704;9.474;2024-01-11T01:03:07;26.70;;;14.80;;
11996;SDS011;6058;48.704;9.474;2024-01-11T01:05:53;27.57;;;13.53;;
11996;SDS011;6058;48.704;9.474;2024-01-11T01:08:29;34.03;;;13.53;;
11996;SDS011;6058;48.704;9.474;2024-01-11T01:11:16;26.37;;;12.87;;
11996;SDS011;6058;48.704;9.474;2024-01-11T01:13:50;26.60;;;12.00;;
11996;SDS011;6058;48.704;9.474;2024-01-11T01:16:23;26.50;;;14.17;;
11996;SDS011;6058;48.704;9.474;2024-01-11T01:18:59;29.40;;;14.17;;
11996;SDS011;6058;48.704;9.474;2024-01-11T01:21:30;24.10;;;11.93;;
11996;SDS011;6058;48.704;9.474;2024-01-11T01:24:07;26.17;;;13.10;;
11996;SDS011;6058;48.704;9.474;2024-01-11T01:26:36;30.77;;;14.23;;
11996;SDS011;6058;48.704;9.474;2024-01-11T01:29:13;23.73;;;12.13;;
11996;SDS011;6058;48.704;9.474;2024-01-11T01:31:42;21.23;;;12.83;;
11996;SDS011;6058;48.704;9.474;2024-01-11T01:34:14;24.90;;;12.27;;
11996;SDS011;6058;48.704;9.474;2024-01-11T01:36:49;28.13;;;14.97;;
11996;SDS011;6058;48.704;9.474;2024-01-11T01:39:20;29.77;;;15.10;;
11996;SDS011;6058;48.704;9.474;2024-01-11T01:41:51;21.13;;;12.50;;
11996;SDS011;6058;48.704;9.474;2024-01-11T01:44:21;27.00;;;12.97;;
11996;SDS011;6058;48.704;9.474;2024-01-11T01:46:54;23.30;;;12.50;;
11996;SDS011;6058;48.704;9.474;2024-01-11T01:49:27;23.40;;;13.27;;
11996;SDS011;6058;48.704;9.474;2024-01-11T01:52:04;23.47;;;12.23;;
11996;SDS011;6058;48.704;9.474;2024-01-11T01:54:34;28.40;;;11.93;;
11996;SDS011;6058;48.704;9.474;2024-01-11T01:57:02;26.03;;;12.90;;
11996;SDS011;6058;48.704;9.474;2024-01-11T01:59:33;24.13;;;12.13;;
11996;SDS011;6058;48.704;9.474;2024-01-11T02:02:06;25.30;;;14.07;;
11996;SDS011;6058;48.704;9.474;2024-01-11T02:04:41;25.23;;;13.63;;
11996;SDS011;6058;48.704;9.474;2024-01-11T02:07:11;25.77;;;13.43;;
11996;SDS011;6058;48.704;9.474;2024-01-11T02:09:40;24.07;;;13.17;;
11996;SDS011;6058;48.704;9.474;2024-01-11T02:12:11;25.57;;;13.37;;
11996;SDS011;6058;48.704;9.474;2024-01-11T02:14:42;22.83;;;11.83;;
11996;SDS011;6058;48.704;9.474;2024-01-11T02:17:13;30.80;;;14.93;;
11996;SDS011;6058;48.704;9.474;2024-01-11T02:19:47;26.13;;;12.97;;
11996;SDS011;6058;48.704;9.474;2024-01-11T02:22:34;23.40;;;12.20;;
11996;SDS011;6058;48.704;9.474;2024-01-11T02:25:09;23.90;;;12.53;;
11996;SDS011;6058;48.704;9.474;2024-01-11T02:27:48;25.67;;;12.23;;
11996;SDS011;6058;48.704;9.474;2024-01-11T02:30:23;27.63;;;12.77;;
11996;SDS011;6058;48.704;9.474;2024-01-11T02:33:11;26.17;;;12.67;;
11996;SDS011;6058;48.704;9.474;2024-01-11T02:35:50;26.63;;;13.20;;
11996;SDS011;6058;48.704;9.474;2024-01-11T02:38:24;19.83;;;10.13;;
11996;SDS011;6058;48.704;9.474;2024-01-11T02:40:54;24.93;;;12.10;;
11996;SDS011;6058;48.704;9.474;2024-01-11T02:43:24;24.27;;;11.50;;
11996;SDS011;6058;48.704;9.474;2024-01-11T02:45:54;23.33;;;12.80;;
11996;SDS011;6058;48.704;9.474;2024-01-11T02:48:27;23.27;;;12.27;;
11996;SDS011;6058;48.704;9.474;2024-01-11T02:51:06;25.10;;;14.10;;
11996;SDS011;6058;48.704;9.474;2024-01-11T02:53:36;23.40;;;12.13;;
11996;SDS011;6058;48.704;9.474;2024-01-11T02:56:11;21.63;;;11.63;;
11996;SDS011;6058;48.704;9.474;2024-01-11T02:58:40;23.47;;;12.83;;
11996;SDS011;6058;48.704;9.474;2024-01-11T03:01:19;24.37;;;13.30;;
11996;SDS011;6058;48.704;9.474;2024-01-11T03:03:57;28.57;;;12.30;;
11996;SDS011;6058;48.704;9.474;2024-01-11T03:06:31;27.03;;;14.00;;
11996;SDS011;6058;48.704;9.474;2024-01-11T03:09:04;30.00;;;14.67;;
11996;SDS011;6058;48.704;9.474;2024-01-11T03:11:35;25.43;;;13.67;;
11996;SDS011;6058;48.704;9.474;2024-01-11T03:14:22;27.17;;;14.97;;
11996;SDS011;6058;48.704;9.474;2024-01-11T03:16:57;28.67;;;13.03;;
11996;SDS011;6058;48.704;9.474;2024-01-11T03:19:25;26.13;;;12.73;;
11996;SDS011;6058;48.704;9.474;2024-01-11T03:21:57;28.03;;;13.13;;
11996;SDS011;6058;48.704;9.474;2024-01-11T03:24:28;22.73;;;12.47;;
11996;SDS011;6058;48.704;9.474;2024-01-11T03:27:01;23.33;;;12.10;;
11996;SDS011;6058;48.704;9.474;2024-01-11T03:29:33;24.40;;;11.77;;
11996;SDS011;6058;48.704;9.474;2024-01-11T03:32:13;23.63;;;10.90;;
11996;SDS011;6058;48.704;9.474;2024-01-11T03:34:44;23.80;;;12.57;;
11996;SDS011;6058;48.704;9.474;2024-01-11T03:37:16;26.07;;;12.07;;
11996;SDS011;6058;48.704;9.474;2024-01-11T03:39:46;23.73;;;12.37;;
11996;SDS011;6058;48.704;9.474;2024-01-11T03:42:22;26.53;;;12.90;;
11996;SDS011;6058;48.704;9.474;2024-01-11T03:44:55;24.70;;;13.33;;
11996;SDS011;6058;48.704;9.474;2024-01-11T03:47:26;26.43;;;12.60;;
11996;SDS011;6058;48.704;9.474;2024-01-11T03:49:59;22.50;;;13.53;;
11996;SDS011;6058;48.704;9.474;2024-01-11T03:52:32;22.57;;;11.97;;
11996;SDS011;6058;48.704;9.474;2024-01-11T03:55:05;25.30;;;11.80;;
11996;SDS011;6058;48.704;9.474;2024-01-11T03:57:38;18.83;;;10.53;;
11996;SDS011;6058;48.704;9.474;2024-01-11T04:00:08;21.53;;;12.50;;
11996;SDS011;6058;48.704;9.474;2024-01-11T04:02:40;25.60;;;13.63;;
11996;SDS011;6058;48.704;9.474;2024-01-11T04:07:44;23.90;;;13.33;;
11996;SDS011;6058;48.704;9.474;2024-01-11T04:10:17;22.97;;;11.80;;
11996;SDS011;6058;48.704;9.474;2024-01-11T04:12:48;29.37;;;13.60;;
11996;SDS011;6058;48.704;9.474;2024-01-11T04:15:22;28.63;;;13.60;;
11996;SDS011;6058;48.704;9.474;2024-01-11T04:17:58;28.63;;;12.30;;
11996;SDS011;6058;48.704;9.474;2024-01-11T04:23:03;24.75;;;12.90;;
11996;SDS011;6058;48.704;9.474;2024-01-11T04:25:35;20.80;;;11.43;;
11996;SDS011;6058;48.704;9.474;2024-01-11T04:28:08;25.87;;;12.77;;
11996;SDS011;6058;48.704;9.474;2024-01-11T04:30:39;29.97;;;14.07;;
11996;SDS011;6058;48.704;9.474;2024-01-11T04:33:09;27.80;;;12.70;;
11996;SDS011;6058;48.704;9.474;2024-01-11T04:35:38;25.73;;;13.90;;
11996;SDS011;6058;48.704;9.474;2024-01-11T04:38:06;23.20;;;11.93;;
11996;SDS011;6058;48.704;9.474;2024-01-11T04:40:41;26.33;;;11.70;;
11996;SDS011;6058;48.704;9.474;2024-01-11T04:43:17;22.50;;;10.90;;
11996;SDS011;6058;48.704;9.474;2024-01-11T04:45:50;24.07;;;12.20;;
11996;SDS011;6058;48.704;9.474;2024-01-11T04:48:19;28.60;;;13.30;;
11996;SDS011;6058;48.704;9.474;2024-01-11T04:50:52;22.70;;;11.60;;
11996;SDS011;6058;48.704;9.474;2024-01-11T04:53:22;27.90;;;13.03;;
11996;SDS011;6058;48.704;9.474;2024-01-11T04:58:36;25.10;;;12.50;;
11996;SDS011;6058;48.704;9.474;2024-01-11T05:01:05;26.03;;;12.73;;
11996;SDS011;6058;48.704;9.474;2024-01-11T05:06:05;29.33;;;13.93;;
11996;SDS011;6058;48.704;9.474;2024-01-11T05:08:38;26.17;;;12.73;;
11996;SDS011;6058;48.704;9.474;2024-01-11T05:11:08;25.70;;;12.03;;
11996;SDS011;6058;48.704;9.474;2024-01-11T05:13:46;25.43;;;13.27;;
11996;SDS011;6058;48.704;9.474;2024-01-11T05:16:19;28.30;;;12.90;;
11996;SDS011;6058;48.704;9.474;2024-01-11T05:18:48;28.10;;;13.17;;
11996;SDS011;6058;48.704;9.474;2024-01-11T05:21:20;27.87;;;13.03;;
11996;SDS011;6058;48.704;9.474;2024-01-11T05:23:52;22.93;;;12.80;;
11996;SDS011;6058;48.704;9.474;2024-01-11T05:26:25;25.67;;;11.20;;
11996;SDS011;6058;48.704;9.474;2024-01-11T05:29:02;26.20;;;12.33;;
11996;SDS011;6058;48.704;9.474;2024-01-11T05:31:34;22.40;;;11.63;;
11996;SDS011;6058;48.704;9.474;2024-01-11T05:34:03;22.70;;;11.67;;
11996;SDS011;6058;48.704;9.474;2024-01-11T05:36:31;25.60;;;12.97;;
11996;SDS011;6058;48.704;9.474;2024-01-11T05:39:07;30.70;;;14.93;;
11996;SDS011;6058;48.704;9.474;2024-01-11T05:41:35;26.97;;;13.63;;
11996;SDS011;6058;48.704;9.474;2024-01-11T05:44:06;22.67;;;11.80;;
11996;SDS011;6058;48.704;9.474;2024-01-11T05:46:36;23.57;;;11.37;;
11996;SDS011;6058;48.704;9.474;2024-01-11T05:49:10;25.33;;;12.73;;
11996;SDS011;6058;48.704;9.474;2024-01-11T05:51:41;26.23;;;13.23;;
11996;SDS011;6058;48.704;9.474;2024-01-11T05:54:13;39.53;;;28.80;;
11996;SDS011;6058;48.704;9.474;2024-01-11T05:56:43;44.53;;;27.30;;
11996;SDS011;6058;48.704;9.474;2024-01-11T05:59:16;54.83;;;45.60;;
11996;SDS011;6058;48.704;9.474;2024-01-11T06:01:45;54.40;;;42.37;;
11996;SDS011;6058;48.704;9.474;2024-01-11T06:04:19;42.23;;;30.97;;
11996;SDS011;6058;48.704;9.474;2024-01-11T06:06:51;37.53;;;23.67;;
11996;SDS011;6058;48.704;9.474;2024-01-11T06:09:22;36.20;;;20.97;;
11996;SDS011;6058;48.704;9.474;2024-01-11T06:11:58;31.40;;;16.77;;
11996;SDS011;6058;48.704;9.474;2024-01-11T06:14:32;32.67;;;17.70;;
11996;SDS011;6058;48.704;9.474;2024-01-11T06:17:06;34.80;;;17.20;;
11996;SDS011;6058;48.704;9.474;2024-01-11T06:19:44;36.20;;;17.10;;
11996;SDS011;6058;48.704;9.474;2024-01-11T06:22:13;34.13;;;19.37;;
11996;SDS011;6058;48.704;9.474;2024-01-11T06:24:50;35.40;;;20.43;;
11996;SDS011;6058;48.704;9.474;2024-01-11T06:27:28;35.63;;;18.07;;
11996;SDS011;6058;48.704;9.474;2024-01-11T06:30:03;32.77;;;19.97;;
11996;SDS011;6058;48.704;9.474;2024-01-11T06:32:37;35.80;;;19.77;;
11996;SDS011;6058;48.704;9.474;2024-01-11T06:35:06;31.83;;;18.87;;
11996;SDS011;6058;48.704;9.474;2024-01-11T06:37:39;33.93;;;18.60;;
11996;SDS011;6058;48.704;9.474;2024-01-11T06:40:10;34.43;;;18.63;;
11996;SDS011;6058;48.704;9.474;2024-01-11T06:42:47;34.93;;;17.70;;
11996;SDS011;6058;48.704;9.474;2024-01-11T06:45:22;34.87;;;17.27;;
11996;SDS011;6058;48.704;9.474;2024-01-11T06:47:58;38.33;;;18.33;;
11996;SDS011;6058;48.704;9.474;2024-01-11T06:50:31;31.33;;;16.67;;
11996;SDS011;6058;48.704;9.474;2024-01-11T06:53:03;31.53;;;15.50;;
11996;SDS011;6058;48.704;9.474;2024-01-11T06:55:38;28.13;;;16.37;;
11996;SDS011;6058;48.704;9.474;2024-01-11T06:58:20;32.90;;;16.30;;
11996;SDS011;6058;48.704;9.474;2024-01-11T07:00:53;37.13;;;16.43;;
11996;SDS011;6058;48.704;9.474;2024-01-11T07:03:35;30.63;;;15.63;;
11996;SDS011;6058;48.704;9.474;2024-01-11T07:06:08;28.27;;;14.90;;
11996;SDS011;6058;48.704;9.474;2024-01-11T07:08:37;33.13;;;15.83;;
11996;SDS011;6058;48.704;9.474;2024-01-11T07:11:16;27.43;;;14.13;;
11996;SDS011;6058;48.704;9.474;2024-01-11T07:13:56;27.13;;;15.27;;
11996;SDS011;6058;48.704;9.474;2024-01-11T07:16:29;33.40;;;14.60;;
11996;SDS011;6058;48.704;9.474;2024-01-11T07:19:01;24.47;;;13.13;;
11996;SDS011;6058;48.704;9.474;2024-01-11T07:21:35;27.67;;;15.13;;
11996;SDS011;6058;48.704;9.474;2024-01-11T07:24:06;26.97;;;15.07;;
11996;SDS011;6058;48.704;9.474;2024-01-11T07:26:37;31.47;;;14.07;;
11996;SDS011;6058;48.704;9.474;2024-01-11T07:29:08;28.27;;;13.27;;
11996;SDS011;6058;48.704;9.474;2024-01-11T07:31:40;27.47;;;14.10;;
11996;SDS011;6058;48.704;9.474;2024-01-11T07:34:09;29.60;;;14.37;;
11996;SDS011;6058;48.704;9.474;2024-01-11T07:36:38;27.60;;;15.07;;
11996;SDS011;6058;48.704;9.474;2024-01-11T07:39:10;28.43;;;14.93;;
11996;SDS011;6058;48.704;9.474;2024-01-11T07:41:49;21.90;;;11.87;;
11996;SDS011;6058;48.704;9.474;2024-01-11T07:44:18;26.37;;;14.30;;
11996;SDS011;6058;48.704;9.474;2024-01-11T07:46:49;26.53;;;13.53;;
11996;SDS011;6058;48.704;9.474;2024-01-11T07:49:20;26.47;;;14.20;;
11996;SDS011;6058;48.704;9.474;2024-01-11T07:51:50;32.50;;;15.00;;
11996;SDS011;6058;48.704;9.474;2024-01-11T07:54:27;25.90;;;13.73;;
11996;SDS011;6058;48.704;9.474;2024-01-11T07:56:56;31.33;;;14.80;;
11996;SDS011;6058;48.704;9.474;2024-01-11T07:59:32;29.93;;;14.40;;
11996;SDS011;6058;48.704;9.474;2024-01-11T08:02:03;32.27;;;15.10;;
11996;SDS011;6058;48.704;9.474;2024-01-11T08:04:37;30.83;;;14.43;;
11996;SDS011;6058;48.704;9.474;2024-01-11T08:07:06;26.50;;;13.47;;
11996;SDS011;6058;48.704;9.474;2024-01-11T08:09:36;27.17;;;14.47;;
11996;SDS011;6058;48.704;9.474;2024-01-11T08:14:50;29.10;;;14.83;;
11996;SDS011;6058;48.704;9.474;2024-01-11T08:17:20;28.13;;;15.07;;
11996;SDS011;6058;48.704;9.474;2024-01-11T08:19:50;33.07;;;16.10;;
11996;SDS011;6058;48.704;9.474;2024-01-11T08:22:22;26.27;;;14.77;;
11996;SDS011;6058;48.704;9.474;2024-01-11T08:24:54;30.57;;;14.90;;
11996;SDS011;6058;48.704;9.474;2024-01-11T08:27:26;30.80;;;17.30;;
11996;SDS011;6058;48.704;9.474;2024-01-11T08:29:55;29.83;;;14.07;;
11996;SDS011;6058;48.704;9.474;2024-01-11T08:32:31;28.60;;;15.43;;
11996;SDS011;6058;48.704;9.474;2024-01-11T08:35:12;36.97;;;17.03;;
11996;SDS011;6058;48.704;9.474;2024-01-11T08:37:44;33.87;;;15.73;;
11996;SDS011;6058;48.704;9.474;2024-01-11T08:40:15;29.57;;;15.93;;
11996;SDS011;6058;48.704;9.474;2024-01-11T08:42:47;32.50;;;16.97;;
11996;SDS011;6058;48.704;9.474;2024-01-11T08:45:15;32.07;;;16.60;;
11996;SDS011;6058;48.704;9.474;2024-01-11T08:47:48;32.90;;;16.73;;
11996;SDS011;6058;48.704;9.474;2024-01-11T08:50:24;31.97;;;17.40;;
11996;SDS011;6058;48.704;9.474;2024-01-11T08:52:53;33.43;;;17.77;;
11996;SDS011;6058;48.704;9.474;2024-01-11T08:55:26;39.70;;;20.90;;
11996;SDS011;6058;48.704;9.474;2024-01-11T08:57:55;35.27;;;19.27;;
11996;SDS011;6058;48.704;9.474;2024-01-11T09:00:26;34.33;;;18.33;;
11996;SDS011;6058;48.704;9.474;2024-01-11T09:03:02;33.37;;;19.73;;
11996;SDS011;6058;48.704;9.474;2024-01-11T09:05:33;33.77;;;18.83;;
11996;SDS011;6058;48.704;9.474;2024-01-11T09:08:02;36.97;;;19.90;;
11996;SDS011;6058;48.704;9.474;2024-01-11T09:10:32;37.47;;;18.17;;
11996;SDS011;6058;48.704;9.474;2024-01-11T09:13:02;35.83;;;18.03;;
11996;SDS011;6058;48.704;9.474;2024-01-11T09:20:48;29.47;;;16.93;;
11996;SDS011;6058;48.704;9.474;2024-01-11T09:23:19;36.43;;;18.60;;
11996;SDS011;6058;48.704;9.474;2024-01-11T09:25:52;30.20;;;17.27;;
11996;SDS011;6058;48.704;9.474;2024-01-11T09:28:20;31.57;;;18.57;;
11996;SDS011;6058;48.704;9.474;2024-01-11T09:30:53;39.77;;;20.13;;
11996;SDS011;6058;48.704;9.474;2024-01-11T09:33:25;34.83;;;17.60;;
11996;SDS011;6058;48.704;9.474;2024-01-11T09:35:55;35.83;;;18.00;;
11996;SDS011;6058;48.704;9.474;2024-01-11T09:38:26;37.73;;;19.20;;
11996;SDS011;6058;48.704;9.474;2024-01-11T09:40:57;30.53;;;18.60;;
11996;SDS011;6058;48.704;9.474;2024-01-11T09:43:27;35.67;;;18.60;;
11996;SDS011;6058;48.704;9.474;2024-01-11T09:45:58;30.23;;;17.57;;
11996;SDS011;6058;48.704;9.474;2024-01-11T09:48:29;31.67;;;17.83;;
11996;SDS011;6058;48.704;9.474;2024-01-11T09:50:59;34.10;;;18.53;;
11996;SDS011;6058;48.704;9.474;2024-01-11T09:53:28;36.57;;;18.60;;
11996;SDS011;6058;48.704;9.474;2024-01-11T09:55:59;37.60;;;18.33;;
11996;SDS011;6058;48.704;9.474;2024-01-11T09:58:27;30.73;;;18.37;;
11996;SDS011;6058;48.704;9.474;2024-01-11T10:01:07;30.63;;;18.27;;
11996;SDS011;6058;48.704;9.474;2024-01-11T10:03:41;35.60;;;17.57;;
11996;SDS011;6058;48.704;9.474;2024-01-11T10:06:13;31.40;;;18.23;;
11996;SDS011;6058;48.704;9.474;2024-01-11T10:08:43;35.60;;;19.17;;
11996;SDS011;6058;48.704;9.474;2024-01-11T10:11:14;33.73;;;17.63;;
11996;SDS011;6058;48.704;9.474;2024-01-11T10:13:42;32.73;;;17.70;;
11996;SDS011;6058;48.704;9.474;2024-01-11T10:16:12;33.10;;;18.30;;
11996;SDS011;6058;48.704;9.474;2024-01-11T10:18:40;34.90;;;19.30;;
11996;SDS011;6058;48.704;9.474;2024-01-11T10:21:09;35.43;;;17.73;;
11996;SDS011;6058;48.704;9.474;2024-01-11T10:23:39;36.13;;;18.67;;
11996;SDS011;6058;48.704;9.474;2024-01-11T10:26:08;33.63;;;18.27;;
11996;SDS011;6058;48.704;9.474;2024-01-11T10:28:36;30.70;;;17.70;;
11996;SDS011;6058;48.704;9.474;2024-01-11T10:31:03;36.33;;;19.17;;
11996;SDS011;6058;48.704;9.474;2024-01-11T10:33:33;37.67;;;18.27;;
11996;SDS011;6058;48.704;9.474;2024-01-11T10:36:01;34.10;;;18.57;;
11996;SDS011;6058;48.704;9.474;2024-01-11T10:38:29;28.27;;;17.60;;
11996;SDS011;6058;48.704;9.474;2024-01-11T10:40:59;35.47;;;19.47;;
11996;SDS011;6058;48.704;9.474;2024-01-11T10:43:27;31.30;;;17.57;;
11996;SDS011;6058;48.704;9.474;2024-01-11T10:45:55;40.03;;;19.80;;
11996;SDS011;6058;48.704;9.474;2024-01-11T10:48:24;36.67;;;20.87;;
11996;SDS011;6058;48.704;9.474;2024-01-11T10:50:53;32.63;;;17.80;;
11996;SDS011;6058;48.704;9.474;2024-01-11T10:53:25;35.80;;;18.77;;
11996;SDS011;6058;48.704;9.474;2024-01-11T10:55:53;30.23;;;17.13;;
11996;SDS011;6058;48.704;9.474;2024-01-11T10:58:22;29.00;;;15.93;;
11996;SDS011;6058;48.704;9.474;2024-01-11T11:00:50;31.50;;;15.20;;
11996;SDS011;6058;48.704;9.474;2024-01-11T11:03:20;35.53;;;18.27;;
11996;SDS011;6058;48.704;9.474;2024-01-11T11:05:48;33.23;;;17.87;;
11996;SDS011;6058;48.704;9.474;2024-01-11T11:08:16;36.27;;;19.03;;
11996;SDS011;6058;48.704;9.474;2024-01-11T11:10:44;34.53;;;18.33;;
11996;SDS011;6058;48.704;9.474;2024-01-11T11:13:12;33.83;;;18.30;;
11996;SDS011;6058;48.704;9.474;2024-01-11T11:15:43;30.90;;;18.50;;
11996;SDS011;6058;48.704;9.474;2024-01-11T11:18:13;33.57;;;18.83;;
11996;SDS011;6058;48.704;9.474;2024-01-11T11:20:41;33.83;;;17.67;;
11996;SDS011;6058;48.704;9.474;2024-01-11T11:23:09;39.97;;;20.73;;
11996;SDS011;6058;48.704;9.474;2024-01-11T11:25:37;35.83;;;19.07;;
11996;SDS011;6058;48.704;9.474;2024-01-11T11:28:07;39.97;;;21.40;;
11996;SDS011;6058;48.704;9.474;2024-01-11T11:30:36;36.63;;;20.00;;
11996;SDS011;6058;48.704;9.474;2024-01-11T11:33:10;37.30;;;20.10;;
11996;SDS011;6058;48.704;9.474;2024-01-11T11:40:42;35.50;;;18.23;;
11996;SDS011;6058;48.704;9.474;2024-01-11T11:43:11;34.77;;;20.70;;
11996;SDS011;6058;48.704;9.474;2024-01-11T11:45:39;38.13;;;19.60;;
11996;SDS011;6058;48.704;9.474;2024-01-11T11:51:23;34.03;;;18.83;;
11996;SDS011;6058;48.704;9.474;2024-01-11T11:53:51;37.33;;;20.07;;
11996;SDS011;6058;48.704;9.474;2024-01-11T11:56:22;37.63;;;21.03;;
11996;SDS011;6058;48.704;9.474;2024-01-11T11:58:51;39.07;;;20.27;;
11996;SDS011;6058;48.704;9.474;2024-01-11T12:01:20;35.20;;;20.00;;
11996;SDS011;6058;48.704;9.474;2024-01-11T12:03:51;34.90;;;20.17;;
11996;SDS011;6058;48.704;9.474;2024-01-11T12:06:23;32.90;;;19.17;;
11996;SDS011;6058;48.704;9.474;2024-01-11T12:08:53;37.50;;;20.10;;
11996;SDS011;6058;48.704;9.474;2024-01-11T12:16:26;36.33;;;18.77;;
11996;SDS011;6058;48.704;9.474;2024-01-11T12:18:54;35.17;;;20.60;;
11996;SDS011;6058;48.704;9.474;2024-01-11T12:21:27;34.57;;;20.20;;
11996;SDS011;6058;48.704;9.474;2024-01-11T12:24:00;31.60;;;18.63;;
11996;SDS011;6058;48.704;9.474;2024-01-11T12:26:35;36.33;;;19.63;;
11996;SDS011;6058;48.704;9.474;2024-01-11T12:29:03;39.53;;;19.17;;
11996;SDS011;6058;48.704;9.474;2024-01-11T12:31:32;35.07;;;19.83;;
11996;SDS011;6058;48.704;9.474;2024-01-11T12:34:03;39.43;;;21.73;;
11996;SDS011;6058;48.704;9.474;2024-01-11T12:36:33;35.37;;;18.10;;
11996;SDS011;6058;48.704;9.474;2024-01-11T12:39:00;37.80;;;20.57;;
11996;SDS011;6058;48.704;9.474;2024-01-11T12:41:29;36.23;;;19.47;;
11996;SDS011;6058;48.704;9.474;2024-01-11T12:43:57;34.53;;;19.77;;
11996;SDS011;6058;48.704;9.474;2024-01-11T12:46:26;32.83;;;18.63;;
11996;SDS011;6058;48.704;9.474;2024-01-11T12:48:56;35.17;;;19.17;;
11996;SDS011;6058;48.704;9.474;2024-01-11T12:51:26;35.07;;;20.63;;
11996;SDS011;6058;48.704;9.474;2024-01-11T12:53:58;35.97;;;20.73;;
11996;SDS011;6058;48.704;9.474;2024-01-11T12:56:29;38.70;;;21.37;;
11996;SDS011;6058;48.704;9.474;2024-01-11T12:59:05;40.07;;;21.10;;
11996;SDS011;6058;48.704;9.474;2024-01-11T13:01:43;39.17;;;22.07;;
11996;SDS011;6058;48.704;9.474;2024-01-11T13:04:16;41.13;;;20.60;;
11996;SDS011;6058;48.704;9.474;2024-01-11T13:06:45;38.43;;;22.63;;
11996;SDS011;6058;48.704;9.474;2024-01-11T13:09:17;38.77;;;21.30;;
11996;SDS011;6058;48.704;9.474;2024-01-11T13:11:46;36.23;;;21.70;;
11996;SDS011;6058;48.704;9.474;2024-01-11T13:14:14;37.47;;;21.47;;
11996;SDS011;6058;48.704;9.474;2024-01-11T13:16:44;36.03;;;22.40;;
11996;SDS011;6058;48.704;9.474;2024-01-11T13:19:15;42.73;;;19.90;;
11996;SDS011;6058;48.704;9.474;2024-01-11T13:21:45;36.73;;;21.47;;
11996;SDS011;6058;48.704;9.474;2024-01-11T13:24:13;33.63;;;18.57;;
11996;SDS011;6058;48.704;9.474;2024-01-11T13:26:46;37.43;;;20.80;;
11996;SDS011;6058;48.704;9.474;2024-01-11T13:34:40;36.63;;;18.10;;
11996;SDS011;6058;48.704;9.474;2024-01-11T13:37:11;35.93;;;21.07;;
11996;SDS011;6058;48.704;9.474;2024-01-11T13:39:47;42.67;;;22.60;;
11996;SDS011;6058;48.704;9.474;2024-01-11T13:42:20;42.33;;;22.40;;
11996;SDS011;6058;48.704;9.474;2024-01-11T13:44:48;38.13;;;22.03;;
11996;SDS011;6058;48.704;9.474;2024-01-11T13:47:16;46.57;;;23.37;;
11996;SDS011;6058;48.704;9.474;2024-01-11T13:49:43;40.03;;;20.53;;
11996;SDS011;6058;48.704;9.474;2024-01-11T13:52:12;41.80;;;21.87;;
11996;SDS011;6058;48.704;9.474;2024-01-11T13:54:40;43.40;;;23.93;;
11996;SDS011;6058;48.704;9.474;2024-01-11T13:57:09;37.87;;;20.63;;
11996;SDS011;6058;48.704;9.474;2024-01-11T13:59:40;35.43;;;21.77;;
11996;SDS011;6058;48.704;9.474;2024-01-11T14:02:09;42.93;;;22.37;;
11996;SDS011;6058;48.704;9.474;2024-01-11T14:04:40;40.30;;;21.40;;
11996;SDS011;6058;48.704;9.474;2024-01-11T14:07:10;44.03;;;23.00;;
11996;SDS011;6058;48.704;9.474;2024-01-11T14:09:39;42.67;;;22.97;;
11996;SDS011;6058;48.704;9.474;2024-01-11T14:12:10;42.80;;;23.40;;
11996;SDS011;6058;48.704;9.474;2024-01-11T14:17:15;44.93;;;22.43;;
11996;SDS011;6058;48.704;9.474;2024-01-11T14:20:06;37.90;;;21.73;;
11996;SDS011;6058;48.704;9.474;2024-01-11T14:22:38;42.53;;;21.17;;
11996;SDS011;6058;48.704;9.474;2024-01-11T14:25:06;37.37;;;21.10;;
11996;SDS011;6058;48.704;9.474;2024-01-11T14:27:36;37.53;;;19.87;;
11996;SDS011;6058;48.704;9.474;2024-01-11T14:30:08;38.00;;;19.67;;
11996;SDS011;6058;48.704;9.474;2024-01-11T14:32:38;37.90;;;20.87;;
11996;SDS011;6058;48.704;9.474;2024-01-11T14:35:10;36.50;;;21.20;;
11996;SDS011;6058;48.704;9.474;2024-01-11T14:37:39;39.23;;;20.93;;
11996;SDS011;6058;48.704;9.474;2024-01-11T14:40:08;38.73;;;20.43;;
11996;SDS011;6058;48.704;9.474;2024-01-11T14:42:38;33.43;;;19.50;;
11996;SDS011;6058;48.704;9.474;2024-01-11T14:45:07;35.87;;;19.60;;
11996;SDS011;6058;48.704;9.474;2024-01-11T14:47:34;36.20;;;19.73;;
11996;SDS011;6058;48.704;9.474;2024-01-11T14:50:05;36.97;;;20.03;;
11996;SDS011;6058;48.704;9.474;2024-01-11T14:52:38;39.57;;;21.80;;
11996;SDS011;6058;48.704;9.474;2024-01-11T14:55:06;36.57;;;20.30;;
11996;SDS011;6058;48.704;9.474;2024-01-11T14:57:35;35.13;;;19.93;;
11996;SDS011;6058;48.704;9.474;2024-01-11T15:00:06;38.20;;;19.43;;
11996;SDS011;6058;48.704;9.474;2024-01-11T15:02:37;37.30;;;19.37;;
11996;SDS011;6058;48.704;9.474;2024-01-11T15:05:18;35.67;;;19.83;;
11996;SDS011;6058;48.704;9.474;2024-01-11T15:15:27;35.63;;;19.20;;
11996;SDS011;6058;48.704;9.474;2024-01-11T15:20:29;32.23;;;19.67;;
11996;SDS011;6058;48.704;9.474;2024-01-11T15:23:04;33.40;;;17.83;;
11996;SDS011;6058;48.704;9.474;2024-01-11T15:25:35;30.90;;;18.60;;
11996;SDS011;6058;48.704;9.474;2024-01-11T15:28:09;38.33;;;20.03;;
11996;SDS011;6058;48.704;9.474;2024-01-11T15:30:39;33.57;;;17.33;;
11996;SDS011;6058;48.704;9.474;2024-01-11T15:38:17;38.87;;;19.97;;
11996;SDS011;6058;48.704;9.474;2024-01-11T15:40:50;42.00;;;22.43;;
11996;SDS011;6058;48.704;9.474;2024-01-11T15:43:26;39.97;;;21.47;;
11996;SDS011;6058;48.704;9.474;2024-01-11T15:46:02;169.00;;;61.17;;
11996;SDS011;6058;48.704;9.474;2024-01-11T15:48:39;35.37;;;21.03;;
11996;SDS011;6058;48.704;9.474;2024-01-11T15:51:12;55.07;;;27.60;;
11996;SDS011;6058;48.704;9.474;2024-01-11T15:56:25;37.73;;;21.27;;
11996;SDS011;6058;48.704;9.474;2024-01-11T16:01:23;38.23;;;21.00;;
11996;SDS011;6058;48.704;9.474;2024-01-11T16:06:45;34.83;;;18.73;;
11996;SDS011;6058;48.704;9.474;2024-01-11T16:09:17;38.17;;;19.43;;
11996;SDS011;6058;48.704;9.474;2024-01-11T16:11:49;24.50;;;14.03;;